<?xml version="1.0" encoding="UTF-8" standalone="no" ?>
<gpx xmlns="http://www.topografix.com/GPX/1/1" xmlns:xsi="http://www.w3.org/2001/XMLSchema-instance" xsi:schemaLocation="http://www.topografix.com/GPX/1/1 http://www.topografix.com/GPX/1/1/gpx.xsd" version="1.1" creator="VisuGPX - https://www.visugpx.com">
  <metadata>
    <name>Du Déroc à La Peyrade</name>
    <desc><![CDATA[Du Déroc à La Peyrade]]></desc>
  </metadata>
  <trk>
    <name><![CDATA[14244287-Du Déroc à La Peyrade]]></name>
    <extensions>
      <line xmlns="http://www.topografix.com/GPX/gpx_style/0/2">
        <color>0000FF</color>
        <width>4</width>
      </line>
    </extensions>
    <trkseg>
      <trkpt lat="44.66217" lon="3.04656">
        <ele>1177</ele>
        <time>2022-02-09T17:34:55Z</time>
      </trkpt>
      <trkpt lat="44.66189" lon="3.04719">
        <ele>1175</ele>
        <time>2022-02-09T17:36:06Z</time>
      </trkpt>
      <trkpt lat="44.66181" lon="3.0482">
        <ele>1176</ele>
        <time>2022-02-09T17:37:42Z</time>
      </trkpt>
      <trkpt lat="44.6615" lon="3.04924">
        <ele>1180</ele>
        <time>2022-02-09T17:39:29Z</time>
      </trkpt>
      <trkpt lat="44.66036" lon="3.05035">
        <ele>1186</ele>
        <time>2022-02-09T17:42:34Z</time>
      </trkpt>
      <trkpt lat="44.66044" lon="3.0508">
        <ele>1183</ele>
        <time>2022-02-09T17:43:18Z</time>
      </trkpt>
      <trkpt lat="44.66004" lon="3.05117">
        <ele>1186</ele>
        <time>2022-02-09T17:44:22Z</time>
      </trkpt>
      <trkpt lat="44.65681" lon="3.05202">
        <ele>1195</ele>
        <time>2022-02-09T17:51:40Z</time>
      </trkpt>
      <trkpt lat="44.65502" lon="3.05149">
        <ele>1202</ele>
        <time>2022-02-09T17:55:45Z</time>
      </trkpt>
      <trkpt lat="44.6535" lon="3.05169">
        <ele>1202</ele>
        <time>2022-02-09T17:59:08Z</time>
      </trkpt>
      <trkpt lat="44.65292" lon="3.0532">
        <ele>1203</ele>
        <time>2022-02-09T18:01:51Z</time>
      </trkpt>
      <trkpt lat="44.65231" lon="3.05382">
        <ele>1206</ele>
        <time>2022-02-09T18:03:32Z</time>
      </trkpt>
      <trkpt lat="44.65153" lon="3.05413">
        <ele>1206</ele>
        <time>2022-02-09T18:05:20Z</time>
      </trkpt>
      <trkpt lat="44.6519" lon="3.05513">
        <ele>1207</ele>
        <time>2022-02-09T18:07:07Z</time>
      </trkpt>
      <trkpt lat="44.65157" lon="3.05595">
        <ele>1208</ele>
        <time>2022-02-09T18:08:36Z</time>
      </trkpt>
      <trkpt lat="44.65163" lon="3.05657">
        <ele>1208</ele>
        <time>2022-02-09T18:09:36Z</time>
      </trkpt>
      <trkpt lat="44.6521" lon="3.05716">
        <ele>1209</ele>
        <time>2022-02-09T18:11:00Z</time>
      </trkpt>
      <trkpt lat="44.6523" lon="3.05772">
        <ele>1208</ele>
        <time>2022-02-09T18:11:59Z</time>
      </trkpt>
      <trkpt lat="44.6513" lon="3.05819">
        <ele>1209</ele>
        <time>2022-02-09T18:14:20Z</time>
      </trkpt>
      <trkpt lat="44.6512" lon="3.05857">
        <ele>1211</ele>
        <time>2022-02-09T18:14:58Z</time>
      </trkpt>
      <trkpt lat="44.65126" lon="3.05882">
        <ele>1212</ele>
        <time>2022-02-09T18:15:23Z</time>
      </trkpt>
      <trkpt lat="44.65042" lon="3.05897">
        <ele>1216</ele>
        <time>2022-02-09T18:17:16Z</time>
      </trkpt>
      <trkpt lat="44.64986" lon="3.05917">
        <ele>1219</ele>
        <time>2022-02-09T18:18:34Z</time>
      </trkpt>
      <trkpt lat="44.64937" lon="3.06018">
        <ele>1222</ele>
        <time>2022-02-09T18:20:30Z</time>
      </trkpt>
      <trkpt lat="44.64936" lon="3.06059">
        <ele>1222</ele>
        <time>2022-02-09T18:21:09Z</time>
      </trkpt>
      <trkpt lat="44.64899" lon="3.06096">
        <ele>1222</ele>
        <time>2022-02-09T18:22:09Z</time>
      </trkpt>
      <trkpt lat="44.64886" lon="3.06161">
        <ele>1219</ele>
        <time>2022-02-09T18:23:13Z</time>
      </trkpt>
      <trkpt lat="44.64873" lon="3.06269">
        <ele>1219</ele>
        <time>2022-02-09T18:24:57Z</time>
      </trkpt>
      <trkpt lat="44.64829" lon="3.06408">
        <ele>1223</ele>
        <time>2022-02-09T18:27:22Z</time>
      </trkpt>
      <trkpt lat="44.64819" lon="3.06486">
        <ele>1221</ele>
        <time>2022-02-09T18:28:37Z</time>
      </trkpt>
      <trkpt lat="44.64776" lon="3.06584">
        <ele>1217</ele>
        <time>2022-02-09T18:30:26Z</time>
      </trkpt>
      <trkpt lat="44.64747" lon="3.06618">
        <ele>1216</ele>
        <time>2022-02-09T18:31:17Z</time>
      </trkpt>
      <trkpt lat="44.64621" lon="3.06944">
        <ele>1211</ele>
        <time>2022-02-09T18:37:09Z</time>
      </trkpt>
      <trkpt lat="44.64651" lon="3.07018">
        <ele>1207</ele>
        <time>2022-02-09T18:38:30Z</time>
      </trkpt>
      <trkpt lat="44.64734" lon="3.07076">
        <ele>1205</ele>
        <time>2022-02-09T18:40:33Z</time>
      </trkpt>
      <trkpt lat="44.64819" lon="3.07115">
        <ele>1200</ele>
        <time>2022-02-09T18:42:33Z</time>
      </trkpt>
      <trkpt lat="44.64892" lon="3.07144">
        <ele>1189</ele>
        <time>2022-02-09T18:44:14Z</time>
      </trkpt>
      <trkpt lat="44.64862" lon="3.07205">
        <ele>1186</ele>
        <time>2022-02-09T18:45:24Z</time>
      </trkpt>
      <trkpt lat="44.64807" lon="3.0723">
        <ele>1184</ele>
        <time>2022-02-09T18:46:42Z</time>
      </trkpt>
      <trkpt lat="44.6479" lon="3.07255">
        <ele>1181</ele>
        <time>2022-02-09T18:47:14Z</time>
      </trkpt>
      <trkpt lat="44.64905" lon="3.07226">
        <ele>1180</ele>
        <time>2022-02-09T18:49:50Z</time>
      </trkpt>
      <trkpt lat="44.64968" lon="3.07244">
        <ele>1176</ele>
        <time>2022-02-09T18:51:16Z</time>
      </trkpt>
      <trkpt lat="44.65042" lon="3.07238">
        <ele>1176</ele>
        <time>2022-02-09T18:52:55Z</time>
      </trkpt>
      <trkpt lat="44.65117" lon="3.07136">
        <ele>1185</ele>
        <time>2022-02-09T18:55:14Z</time>
      </trkpt>
      <trkpt lat="44.65158" lon="3.07094">
        <ele>1191</ele>
        <time>2022-02-09T18:56:22Z</time>
      </trkpt>
      <trkpt lat="44.65204" lon="3.07032">
        <ele>1199</ele>
        <time>2022-02-09T18:57:47Z</time>
      </trkpt>
      <trkpt lat="44.65297" lon="3.06833">
        <ele>1213</ele>
        <time>2022-02-09T19:01:33Z</time>
      </trkpt>
      <trkpt lat="44.65319" lon="3.06856">
        <ele>1217</ele>
        <time>2022-02-09T19:02:10Z</time>
      </trkpt>
      <trkpt lat="44.6534" lon="3.06851">
        <ele>1219</ele>
        <time>2022-02-09T19:02:38Z</time>
      </trkpt>
      <trkpt lat="44.65371" lon="3.0686">
        <ele>1221</ele>
        <time>2022-02-09T19:03:20Z</time>
      </trkpt>
      <trkpt lat="44.65443" lon="3.06784">
        <ele>1218</ele>
        <time>2022-02-09T19:05:20Z</time>
      </trkpt>
      <trkpt lat="44.65494" lon="3.06771">
        <ele>1216</ele>
        <time>2022-02-09T19:06:30Z</time>
      </trkpt>
      <trkpt lat="44.65623" lon="3.06885">
        <ele>1216</ele>
        <time>2022-02-09T19:09:53Z</time>
      </trkpt>
      <trkpt lat="44.65661" lon="3.06942">
        <ele>1214</ele>
        <time>2022-02-09T19:11:07Z</time>
      </trkpt>
      <trkpt lat="44.65736" lon="3.07023">
        <ele>1213</ele>
        <time>2022-02-09T19:13:13Z</time>
      </trkpt>
      <trkpt lat="44.65757" lon="3.06994">
        <ele>1210</ele>
        <time>2022-02-09T19:13:53Z</time>
      </trkpt>
      <trkpt lat="44.65826" lon="3.06963">
        <ele>1202</ele>
        <time>2022-02-09T19:15:29Z</time>
      </trkpt>
      <trkpt lat="44.65918" lon="3.06979">
        <ele>1198</ele>
        <time>2022-02-09T19:17:33Z</time>
      </trkpt>
      <trkpt lat="44.65948" lon="3.06959">
        <ele>1195</ele>
        <time>2022-02-09T19:18:17Z</time>
      </trkpt>
      <trkpt lat="44.66019" lon="3.06957">
        <ele>1193</ele>
        <time>2022-02-09T19:19:52Z</time>
      </trkpt>
      <trkpt lat="44.66114" lon="3.06986">
        <ele>1195</ele>
        <time>2022-02-09T19:22:02Z</time>
      </trkpt>
      <trkpt lat="44.66204" lon="3.07042">
        <ele>1199</ele>
        <time>2022-02-09T19:24:13Z</time>
      </trkpt>
      <trkpt lat="44.6628" lon="3.07064">
        <ele>1198</ele>
        <time>2022-02-09T19:25:57Z</time>
      </trkpt>
      <trkpt lat="44.66392" lon="3.07065">
        <ele>1194</ele>
        <time>2022-02-09T19:28:26Z</time>
      </trkpt>
      <trkpt lat="44.66477" lon="3.07103">
        <ele>1197</ele>
        <time>2022-02-09T19:30:25Z</time>
      </trkpt>
      <trkpt lat="44.66545" lon="3.07048">
        <ele>1197</ele>
        <time>2022-02-09T19:32:10Z</time>
      </trkpt>
      <trkpt lat="44.66652" lon="3.07132">
        <ele>1201</ele>
        <time>2022-02-09T19:34:53Z</time>
      </trkpt>
      <trkpt lat="44.66766" lon="3.07331">
        <ele>1199</ele>
        <time>2022-02-09T19:38:56Z</time>
      </trkpt>
      <trkpt lat="44.66789" lon="3.0747">
        <ele>1202</ele>
        <time>2022-02-09T19:41:11Z</time>
      </trkpt>
      <trkpt lat="44.6684" lon="3.07482">
        <ele>1202</ele>
        <time>2022-02-09T19:42:20Z</time>
      </trkpt>
      <trkpt lat="44.66871" lon="3.07465">
        <ele>1203</ele>
        <time>2022-02-09T19:43:05Z</time>
      </trkpt>
      <trkpt lat="44.66923" lon="3.075">
        <ele>1206</ele>
        <time>2022-02-09T19:44:22Z</time>
      </trkpt>
      <trkpt lat="44.66973" lon="3.07504">
        <ele>1209</ele>
        <time>2022-02-09T19:45:28Z</time>
      </trkpt>
      <trkpt lat="44.67029" lon="3.0754">
        <ele>1207</ele>
        <time>2022-02-09T19:46:51Z</time>
      </trkpt>
      <trkpt lat="44.67084" lon="3.07525">
        <ele>1206</ele>
        <time>2022-02-09T19:48:05Z</time>
      </trkpt>
      <trkpt lat="44.67103" lon="3.07437">
        <ele>1206</ele>
        <time>2022-02-09T19:49:33Z</time>
      </trkpt>
      <trkpt lat="44.67129" lon="3.074">
        <ele>1202</ele>
        <time>2022-02-09T19:50:22Z</time>
      </trkpt>
      <trkpt lat="44.67161" lon="3.07432">
        <ele>1200</ele>
        <time>2022-02-09T19:51:14Z</time>
      </trkpt>
      <trkpt lat="44.67206" lon="3.07416">
        <ele>1196</ele>
        <time>2022-02-09T19:52:16Z</time>
      </trkpt>
      <trkpt lat="44.67252" lon="3.07358">
        <ele>1188</ele>
        <time>2022-02-09T19:53:39Z</time>
      </trkpt>
      <trkpt lat="44.67267" lon="3.07317">
        <ele>1184</ele>
        <time>2022-02-09T19:54:23Z</time>
      </trkpt>
      <trkpt lat="44.67437" lon="3.0707">
        <ele>1161</ele>
        <time>2022-02-09T19:59:49Z</time>
      </trkpt>
      <trkpt lat="44.67505" lon="3.0702">
        <ele>1157</ele>
        <time>2022-02-09T20:01:31Z</time>
      </trkpt>
      <trkpt lat="44.67523" lon="3.06977">
        <ele>1154</ele>
        <time>2022-02-09T20:02:19Z</time>
      </trkpt>
      <trkpt lat="44.67514" lon="3.06828">
        <ele>1154</ele>
        <time>2022-02-09T20:04:40Z</time>
      </trkpt>
      <trkpt lat="44.67466" lon="3.06572">
        <ele>1156</ele>
        <time>2022-02-09T20:08:52Z</time>
      </trkpt>
      <trkpt lat="44.67413" lon="3.06464">
        <ele>1159</ele>
        <time>2022-02-09T20:10:56Z</time>
      </trkpt>
      <trkpt lat="44.67104" lon="3.0613">
        <ele>1181</ele>
        <time>2022-02-09T20:19:36Z</time>
      </trkpt>
      <trkpt lat="44.67017" lon="3.06147">
        <ele>1187</ele>
        <time>2022-02-09T20:21:34Z</time>
      </trkpt>
      <trkpt lat="44.6687" lon="3.0613">
        <ele>1197</ele>
        <time>2022-02-09T20:24:50Z</time>
      </trkpt>
      <trkpt lat="44.66733" lon="3.06089">
        <ele>1209</ele>
        <time>2022-02-09T20:27:57Z</time>
      </trkpt>
      <trkpt lat="44.66572" lon="3.0603">
        <ele>1216</ele>
        <time>2022-02-09T20:31:39Z</time>
      </trkpt>
      <trkpt lat="44.66389" lon="3.05992">
        <ele>1220</ele>
        <time>2022-02-09T20:35:46Z</time>
      </trkpt>
      <trkpt lat="44.66285" lon="3.05971">
        <ele>1225</ele>
        <time>2022-02-09T20:38:06Z</time>
      </trkpt>
      <trkpt lat="44.66202" lon="3.05933">
        <ele>1225</ele>
        <time>2022-02-09T20:40:03Z</time>
      </trkpt>
      <trkpt lat="44.66169" lon="3.05918">
        <ele>1225</ele>
        <time>2022-02-09T20:40:49Z</time>
      </trkpt>
      <trkpt lat="44.66078" lon="3.05916">
        <ele>1224</ele>
        <time>2022-02-09T20:42:51Z</time>
      </trkpt>
      <trkpt lat="44.65966" lon="3.05871">
        <ele>1225</ele>
        <time>2022-02-09T20:45:26Z</time>
      </trkpt>
      <trkpt lat="44.65863" lon="3.05851">
        <ele>1227</ele>
        <time>2022-02-09T20:47:45Z</time>
      </trkpt>
      <trkpt lat="44.65806" lon="3.05822">
        <ele>1224</ele>
        <time>2022-02-09T20:49:06Z</time>
      </trkpt>
      <trkpt lat="44.6576" lon="3.05829">
        <ele>1221</ele>
        <time>2022-02-09T20:50:07Z</time>
      </trkpt>
      <trkpt lat="44.65735" lon="3.05801">
        <ele>1218</ele>
        <time>2022-02-09T20:50:50Z</time>
      </trkpt>
      <trkpt lat="44.65853" lon="3.05649">
        <ele>1207</ele>
        <time>2022-02-09T20:54:24Z</time>
      </trkpt>
      <trkpt lat="44.65855" lon="3.05537">
        <ele>1203</ele>
        <time>2022-02-09T20:56:10Z</time>
      </trkpt>
      <trkpt lat="44.65934" lon="3.05355">
        <ele>1194</ele>
        <time>2022-02-09T20:59:32Z</time>
      </trkpt>
      <trkpt lat="44.65942" lon="3.05308">
        <ele>1191</ele>
        <time>2022-02-09T21:00:18Z</time>
      </trkpt>
      <trkpt lat="44.65937" lon="3.05257">
        <ele>1189</ele>
        <time>2022-02-09T21:01:07Z</time>
      </trkpt>
      <trkpt lat="44.65917" lon="3.05213">
        <ele>1189</ele>
        <time>2022-02-09T21:01:57Z</time>
      </trkpt>
      <trkpt lat="44.66045" lon="3.05077">
        <ele>1183</ele>
        <time>2022-02-09T21:05:31Z</time>
      </trkpt>
      <trkpt lat="44.66033" lon="3.05035">
        <ele>1187</ele>
        <time>2022-02-09T21:06:14Z</time>
      </trkpt>
      <trkpt lat="44.66148" lon="3.04929">
        <ele>1180</ele>
        <time>2022-02-09T21:09:17Z</time>
      </trkpt>
      <trkpt lat="44.66178" lon="3.04816">
        <ele>1176</ele>
        <time>2022-02-09T21:11:12Z</time>
      </trkpt>
      <trkpt lat="44.66188" lon="3.04719">
        <ele>1175</ele>
        <time>2022-02-09T21:12:45Z</time>
      </trkpt>
      <trkpt lat="44.66212" lon="3.04659">
        <ele>1177</ele>
        <time>2022-02-09T21:13:50Z</time>
      </trkpt>
    </trkseg>
  </trk>
</gpx>